createdAt,value
2023-05-05T00:01:41.024Z,100810.75
2023-05-05T00:04:10.528Z,100799.78
2023-05-05T00:06:38.708Z,100809.06
2023-05-05T00:09:07.132Z,100804.84
2023-05-05T00:11:35.286Z,100790.75
2023-05-05T00:14:03.378Z,100797.88
2023-05-05T00:16:31.583Z,100793.25
2023-05-05T00:19:01.149Z,100766.44
2023-05-05T00:21:31.030Z,100802.53
2023-05-05T00:23:59.298Z,100800.22
2023-05-05T00:26:27.377Z,100797.25
2023-05-05T00:28:55.506Z,100799.13
2023-05-05T00:31:23.753Z,100797.03
2023-05-05T00:33:51.985Z,100789.22
2023-05-05T00:36:20.337Z,100790.06
2023-05-05T00:38:49.858Z,100798.03
2023-05-05T00:41:17.919Z,100791.22
2023-05-05T00:43:46.297Z,100791.84
2023-05-05T00:46:23.424Z,100783.84
2023-05-05T00:48:52.353Z,100765.06
2023-05-05T00:51:22.139Z,100784.03
2023-05-05T00:54:17.659Z,100770.56
2023-05-05T00:56:45.911Z,100770.09
2023-05-05T00:59:14.208Z,100761.22
2023-05-05T01:01:42.499Z,100761.47
2023-05-05T01:04:10.824Z,100757.25
2023-05-05T01:06:55.207Z,100759.97
2023-05-05T01:09:36.219Z,100756.16
2023-05-05T01:12:16.166Z,100755.31
2023-05-05T01:14:48.463Z,100753.22
2023-05-05T01:17:19.001Z,100754.50
2023-05-05T01:20:00.197Z,100747.78
2023-05-05T01:22:35.040Z,100749.06
2023-05-05T01:25:45.694Z,100750.13
2023-05-05T01:28:25.526Z,100748.66
2023-05-05T01:31:07.467Z,100737.69
2023-05-05T01:33:44.904Z,100735.16
2023-05-05T01:36:22.673Z,100726.69
2023-05-05T01:38:56.304Z,100733.84
2023-05-05T01:41:29.176Z,100739.75
2023-05-05T01:44:00.852Z,100718.22
2023-05-05T01:46:29.567Z,100722.25
2023-05-05T01:49:00.185Z,100726.91
2023-05-05T01:51:29.187Z,100726.63
2023-05-05T01:54:00.204Z,100719.69
2023-05-05T01:56:31.049Z,100718.19
2023-05-05T01:59:01.617Z,100716.47
2023-05-05T02:01:31.945Z,100717.78
2023-05-05T02:04:04.365Z,100707.41
2023-05-05T02:06:34.714Z,100720.31
2023-05-05T02:09:03.862Z,100718.63
2023-05-05T02:11:32.747Z,100722.19
2023-05-05T02:14:02.023Z,100717.81
2023-05-05T02:16:31.238Z,100714.44
2023-05-05T02:19:05.177Z,100708.97
2023-05-05T02:21:34.871Z,100700.09
2023-05-05T02:24:04.784Z,100701.38
2023-05-05T02:26:36.343Z,100707.25
2023-05-05T02:29:08.617Z,100716.72
2023-05-05T02:31:45.199Z,100710.38
2023-05-05T02:34:22.644Z,100709.09
2023-05-05T02:36:54.445Z,100711.41
2023-05-05T02:39:33.138Z,100707.22
2023-05-05T02:42:09.482Z,100710.75
2023-05-05T02:44:42.513Z,100721.09
2023-05-05T02:47:13.519Z,100710.56
2023-05-05T02:49:43.903Z,100710.50
2023-05-05T02:52:12.230Z,100706.75
2023-05-05T02:54:42.143Z,100703.16
2023-05-05T02:57:19.441Z,100700.84
2023-05-05T02:59:59.484Z,100696.63
2023-05-05T03:02:35.062Z,100702.03
2023-05-05T03:05:12.958Z,100697.06
2023-05-05T03:07:54.734Z,100692.88
2023-05-05T03:10:30.133Z,100695.75
2023-05-05T03:13:03.415Z,100695.78
2023-05-05T03:15:47.105Z,100701.44
2023-05-05T03:18:19.277Z,100697.28
2023-05-05T03:20:55.088Z,100697.44
2023-05-05T03:23:23.388Z,100695.53
2023-05-05T03:25:56.693Z,100692.38
2023-05-05T03:28:31.163Z,100681.03
2023-05-05T03:31:02.400Z,100652.28
2023-05-05T03:33:33.140Z,100689.16
2023-05-05T03:36:03.716Z,100679.94
2023-05-05T03:38:31.782Z,100684.97
2023-05-05T03:41:03.469Z,100688.75
2023-05-05T03:43:32.833Z,100685.41
2023-05-05T03:46:01.093Z,100697.84
2023-05-05T03:48:30.327Z,100692.81
2023-05-05T03:50:58.746Z,100693.69
2023-05-05T03:53:30.816Z,100694.66
2023-05-05T03:55:59.312Z,100698.72
2023-05-05T03:58:27.542Z,100695.50
2023-05-05T04:00:55.643Z,100709.19
2023-05-05T04:03:23.888Z,100699.09
2023-05-05T04:05:52.157Z,100697.69
2023-05-05T04:08:21.144Z,100698.13
2023-05-05T04:10:51.102Z,100699.19
2023-05-05T04:13:19.233Z,100698.78
2023-05-05T04:15:48.091Z,100705.56
2023-05-05T04:18:17.420Z,100702.22
2023-05-05T04:20:45.661Z,100694.44
2023-05-05T04:23:13.996Z,100701.31
2023-05-05T04:25:42.779Z,100702.13
2023-05-05T04:28:13.920Z,100711.78
2023-05-05T04:30:42.641Z,100713.91
2023-05-05T04:33:10.886Z,100717.03
2023-05-05T04:35:39.079Z,100722.13
2023-05-05T04:38:07.274Z,100720.91
2023-05-05T04:40:40.075Z,100726.16
2023-05-05T04:43:08.961Z,100721.13
2023-05-05T04:45:39.304Z,100719.00
2023-05-05T04:48:07.805Z,100719.75
2023-05-05T04:50:37.100Z,100709.75
2023-05-05T04:53:05.365Z,100708.03
2023-05-05T04:55:34.043Z,100699.47
2023-05-05T04:58:02.197Z,100695.50
2023-05-05T05:00:30.633Z,100697.81
2023-05-05T05:03:00.281Z,100697.63
2023-05-05T05:05:28.410Z,100703.53
2023-05-05T05:07:57.004Z,100702.47
2023-05-05T05:10:25.165Z,100704.41
2023-05-05T05:12:53.274Z,100706.75
2023-05-05T05:15:21.977Z,100707.78
2023-05-05T05:17:50.380Z,100710.31
2023-05-05T05:20:20.367Z,100702.38
2023-05-05T05:22:48.640Z,100710.38
2023-05-05T05:25:19.722Z,100714.19
2023-05-05T05:28:01.968Z,100701.78
2023-05-05T05:30:37.490Z,100715.91
2023-05-05T05:33:07.913Z,100707.66
2023-05-05T05:35:37.732Z,100718.63
2023-05-05T05:38:06.323Z,100713.97
2023-05-05T05:40:35.088Z,100720.97
2023-05-05T05:43:04.184Z,100726.84
2023-05-05T05:45:32.636Z,100732.34
2023-05-05T05:48:00.908Z,100739.06
2023-05-05T05:50:29.098Z,100734.66
2023-05-05T05:53:00.733Z,100733.38
2023-05-05T05:55:29.824Z,100739.06
2023-05-05T05:57:58.092Z,100745.16
2023-05-05T06:00:27.112Z,100724.44
2023-05-05T06:03:03.097Z,100751.00
2023-05-05T06:05:34.468Z,100746.19
2023-05-05T06:08:04.040Z,100749.81
2023-05-05T06:10:35.708Z,100747.69
2023-05-05T06:13:11.395Z,100748.94
2023-05-05T06:15:43.628Z,100752.47
2023-05-05T06:18:14.039Z,100746.34
2023-05-05T06:20:43.505Z,100750.44
2023-05-05T06:23:14.311Z,100739.28
2023-05-05T06:25:48.060Z,100734.25
2023-05-05T06:28:16.293Z,100733.97
2023-05-05T06:30:44.854Z,100733.53
2023-05-05T06:33:13.117Z,100739.44
2023-05-05T06:35:41.244Z,100726.13
2023-05-05T06:38:09.813Z,100715.31
2023-05-05T06:40:39.243Z,100694.03
2023-05-05T06:43:07.794Z,100731.00
2023-05-05T06:45:43.665Z,100741.34
2023-05-05T06:48:11.977Z,100743.97
2023-05-05T06:50:40.003Z,100762.09
2023-05-05T06:53:08.110Z,100759.38
2023-05-05T06:55:36.281Z,100781.78
2023-05-05T06:58:05.826Z,100797.47
2023-05-05T07:00:34.069Z,100800.25
2023-05-05T07:03:02.422Z,100810.34
2023-05-05T07:05:31.090Z,100813.53
2023-05-05T07:07:59.757Z,100820.03
2023-05-05T07:10:28.892Z,100800.47
2023-05-05T07:12:57.160Z,100801.69
2023-05-05T07:15:29.188Z,100793.03
2023-05-05T07:17:58.238Z,100809.22
2023-05-05T07:20:27.154Z,100801.63
2023-05-05T07:22:55.270Z,100808.19
2023-05-05T07:25:23.424Z,100793.03
2023-05-05T07:27:51.720Z,100799.69
2023-05-05T07:30:20.170Z,100804.09
2023-05-05T07:32:51.330Z,100807.25
2023-05-05T07:35:19.623Z,100813.44
2023-05-05T07:37:48.082Z,100807.13
2023-05-05T07:40:16.506Z,100813.88
2023-05-05T07:42:44.658Z,100822.53
2023-05-05T07:45:12.819Z,100819.97
2023-05-05T07:47:41.767Z,100828.88
2023-05-05T07:50:12.428Z,100819.22
2023-05-05T07:55:11.740Z,100817.75
2023-05-05T07:57:39.878Z,100825.56
2023-05-05T08:00:09.490Z,100829.13
2023-05-05T08:02:41.244Z,100822.59
2023-05-05T08:05:11.467Z,100836.72
2023-05-05T08:07:41.527Z,100834.22
2023-05-05T08:10:11.264Z,100827.25
2023-05-05T08:12:39.502Z,100829.56
2023-05-05T08:15:08.786Z,100836.53
2023-05-05T08:17:48.662Z,100838.22
2023-05-05T08:20:19.443Z,100833.16
2023-05-05T08:22:48.003Z,100835.06
2023-05-05T08:25:16.224Z,100831.44
2023-05-05T08:27:44.609Z,100831.00
2023-05-05T08:30:13.424Z,100831.88
2023-05-05T08:32:41.616Z,100838.16
2023-05-05T08:35:10.614Z,100831.97
2023-05-05T08:37:40.524Z,100835.84
2023-05-05T08:40:12.219Z,100834.63
2023-05-05T08:42:40.466Z,100830.69
2023-05-05T08:45:10.655Z,100805.16
2023-05-05T08:47:40.253Z,100840.38
2023-05-05T08:50:11.858Z,100836.47
2023-05-05T08:52:44.352Z,100832.06
2023-05-05T08:55:24.068Z,100811.22
2023-05-05T08:57:53.888Z,100835.97
2023-05-05T09:00:22.705Z,100789.84
2023-05-05T09:02:51.385Z,100807.97
2023-05-05T09:05:19.796Z,100820.63
2023-05-05T09:07:49.487Z,100827.66
2023-05-05T09:10:18.384Z,100822.41
2023-05-05T09:12:46.625Z,100833.41
2023-05-05T09:15:16.379Z,100825.28
2023-05-05T09:17:44.669Z,100833.13
2023-05-05T09:20:14.319Z,100835.03
2023-05-05T09:22:44.907Z,100831.47
2023-05-05T09:25:16.526Z,100841.91
2023-05-05T09:27:46.868Z,100828.19
2023-05-05T09:30:18.060Z,100835.09
2023-05-05T09:32:48.083Z,100835.66
2023-05-05T09:35:16.986Z,100794.66
2023-05-05T09:37:46.075Z,100823.31
2023-05-05T09:40:18.316Z,100822.56
2023-05-05T09:42:47.348Z,100836.13
2023-05-05T09:45:28.692Z,100844.88
2023-05-05T09:48:00.403Z,100838.22
2023-05-05T09:50:31.043Z,100840.31
2023-05-05T09:53:00.864Z,100840.50
2023-05-05T09:55:31.984Z,100838.19
2023-05-05T09:58:19.267Z,100810.66
2023-05-05T10:00:47.717Z,100827.38
2023-05-05T10:03:16.178Z,100837.56
2023-05-05T10:05:52.049Z,100800.44
2023-05-05T10:08:22.014Z,100822.22
2023-05-05T10:10:55.909Z,100828.84
2023-05-05T10:13:26.106Z,100825.53
2023-05-05T10:15:55.644Z,100820.06
2023-05-05T10:18:25.055Z,100821.47
2023-05-05T10:20:59.308Z,100822.66
2023-05-05T10:23:33.989Z,100819.38
2023-05-05T10:26:05.918Z,100817.19
2023-05-05T10:28:35.681Z,100811.47
2023-05-05T10:31:16.527Z,100810.06
2023-05-05T10:33:56.219Z,100812.31
2023-05-05T10:36:26.429Z,100783.66
2023-05-05T10:38:57.798Z,100804.22
2023-05-05T10:41:27.628Z,100814.00
2023-05-05T10:43:57.781Z,100796.97
2023-05-05T10:46:27.955Z,100798.56
2023-05-05T10:49:00.807Z,100797.16
2023-05-05T10:51:40.331Z,100794.59
2023-05-05T10:54:15.288Z,100784.19
2023-05-05T10:56:45.160Z,100797.22
2023-05-05T10:59:41.360Z,100797.28
2023-05-05T11:02:28.046Z,100787.34
2023-05-05T11:05:07.539Z,100791.50
2023-05-05T11:07:35.982Z,100787.78
2023-05-05T11:10:06.121Z,100795.94
2023-05-05T11:13:13.501Z,100783.69
2023-05-05T11:15:41.863Z,100784.63
2023-05-05T11:18:29.997Z,100772.00
2023-05-05T11:21:15.636Z,100769.38
2023-05-05T11:23:52.403Z,100780.63
2023-05-05T11:26:51.088Z,100767.38
2023-05-05T11:29:20.561Z,100757.72
2023-05-05T11:32:12.389Z,100761.84
2023-05-05T11:34:50.145Z,100759.44
2023-05-05T11:37:18.336Z,100752.97
2023-05-05T11:40:01.462Z,100755.72
2023-05-05T11:42:30.334Z,100753.59
2023-05-05T11:45:00.562Z,100751.91
2023-05-05T11:47:30.856Z,100739.38
2023-05-05T11:49:59.296Z,100745.25
2023-05-05T11:52:30.909Z,100750.22
2023-05-05T11:55:03.793Z,100740.38
2023-05-05T11:57:32.275Z,100742.31
2023-05-05T12:00:03.592Z,100730.56
2023-05-05T12:02:35.218Z,100737.53
2023-05-05T12:05:04.003Z,100727.81
2023-05-05T12:07:34.220Z,100729.19
2023-05-05T12:10:02.725Z,100736.63
2023-05-05T12:12:39.431Z,100734.34
2023-05-05T12:15:10.546Z,100735.53
2023-05-05T12:17:45.051Z,100733.28
2023-05-05T12:20:14.268Z,100734.38
2023-05-05T12:22:42.766Z,100736.84
2023-05-05T12:25:11.728Z,100723.88
2023-05-05T12:27:41.360Z,100718.00
2023-05-05T12:30:16.904Z,100702.97
2023-05-05T12:32:46.482Z,100703.00
2023-05-05T12:35:16.148Z,100694.13
2023-05-05T12:37:44.868Z,100702.75
2023-05-05T12:40:44.748Z,100697.91
2023-05-05T12:43:25.553Z,100676.09
2023-05-05T12:46:06.081Z,100689.06
2023-05-05T12:48:35.749Z,100690.19
2023-05-05T12:51:18.144Z,100694.59
2023-05-05T12:53:47.396Z,100692.66
2023-05-05T12:56:35.440Z,100674.59
2023-05-05T12:59:05.482Z,100691.31
2023-05-05T13:01:35.756Z,100687.63
2023-05-05T13:04:13.029Z,100690.31
2023-05-05T13:06:43.123Z,100681.81
2023-05-05T13:09:24.139Z,100664.84
2023-05-05T13:11:53.265Z,100679.88
2023-05-05T13:14:21.811Z,100678.25
2023-05-05T13:16:51.532Z,100683.75
2023-05-05T13:19:19.808Z,100679.84
2023-05-05T13:21:48.189Z,100676.53
2023-05-05T13:26:48.562Z,100673.91
2023-05-05T13:29:17.554Z,100668.66
2023-05-05T13:31:46.412Z,100657.13
2023-05-05T13:34:16.083Z,100658.28
2023-05-05T13:36:44.191Z,100652.91
2023-05-05T13:39:12.605Z,100643.56
2023-05-05T13:41:40.915Z,100641.56
2023-05-05T13:44:09.118Z,100640.53
2023-05-05T13:46:37.231Z,100641.22
2023-05-05T13:49:05.421Z,100636.66
2023-05-05T13:51:35.607Z,100637.44
2023-05-05T13:54:04.006Z,100620.50
2023-05-05T13:56:32.591Z,100584.69
2023-05-05T13:59:00.966Z,100625.44
2023-05-05T14:01:30.140Z,100608.06
2023-05-05T14:03:58.840Z,100621.25
2023-05-05T14:06:27.766Z,100611.22
2023-05-05T14:08:57.264Z,100606.91
2023-05-05T14:11:25.383Z,100608.84
2023-05-05T14:13:53.631Z,100610.97
2023-05-05T14:16:21.770Z,100608.06
2023-05-05T14:18:49.922Z,100602.47
2023-05-05T14:21:18.048Z,100602.31
2023-05-05T14:23:46.398Z,100599.56
2023-05-05T14:26:16.203Z,100598.81
2023-05-05T14:28:47.235Z,100612.22
2023-05-05T14:31:17.573Z,100615.50
2023-05-05T14:33:46.022Z,100620.06
2023-05-05T14:36:14.400Z,100619.75
2023-05-05T14:38:43.894Z,100627.69
2023-05-05T14:41:12.385Z,100626.88
2023-05-05T14:43:42.056Z,100634.22
2023-05-05T14:46:10.629Z,100650.31
2023-05-05T14:48:39.400Z,100655.59
2023-05-05T14:51:08.290Z,100662.91
2023-05-05T14:53:36.573Z,100673.22
2023-05-05T14:56:04.964Z,100686.44
2023-05-05T14:58:33.234Z,100694.69
2023-05-05T15:01:02.922Z,100687.00
2023-05-05T15:03:31.749Z,100744.13
2023-05-05T15:06:00.404Z,100756.56
2023-05-05T15:08:29.069Z,100781.34
2023-05-05T15:10:57.482Z,100780.34
2023-05-05T15:13:25.700Z,100770.22
2023-05-05T15:15:54.200Z,100787.72
2023-05-05T15:18:24.221Z,100807.19
2023-05-05T15:20:52.423Z,100802.72
2023-05-05T15:23:21.243Z,100806.97
2023-05-05T15:25:49.712Z,100811.81
2023-05-05T15:28:18.794Z,100796.31
2023-05-05T15:30:47.544Z,100789.38
2023-05-05T15:33:15.817Z,100781.69
2023-05-05T15:35:46.786Z,100772.03
2023-05-05T15:38:15.480Z,100791.34
2023-05-05T15:40:47.215Z,100785.69
2023-05-05T15:43:17.576Z,100761.94
2023-05-05T15:45:45.977Z,100789.34
2023-05-05T15:48:14.492Z,100803.06
2023-05-05T15:50:42.803Z,100791.41
2023-05-05T15:53:12.464Z,100783.59
2023-05-05T15:55:40.977Z,100793.50
2023-05-05T15:58:09.087Z,100789.84
2023-05-05T16:00:37.403Z,100795.31
2023-05-05T16:03:05.958Z,100803.94
2023-05-05T16:05:34.419Z,100801.88
2023-05-05T16:08:07.402Z,100808.38
2023-05-05T16:10:36.892Z,100803.28
2023-05-05T16:13:05.106Z,100804.91
2023-05-05T16:15:33.281Z,100816.38
2023-05-05T16:18:01.400Z,100819.09
2023-05-05T16:20:29.718Z,100828.69
2023-05-05T16:22:58.575Z,100829.81
2023-05-05T16:25:28.104Z,100833.34
2023-05-05T16:27:57.675Z,100831.06
2023-05-05T16:30:26.001Z,100836.31
2023-05-05T16:32:54.841Z,100833.63
2023-05-05T16:35:23.938Z,100831.06
2023-05-05T16:37:52.560Z,100827.91
2023-05-05T16:40:20.636Z,100837.22
2023-05-05T16:42:48.915Z,100847.38
2023-05-05T16:45:18.511Z,100846.00
2023-05-05T16:47:46.872Z,100840.59
2023-05-05T16:50:16.557Z,100850.75
2023-05-05T16:52:45.427Z,100847.84
2023-05-05T16:55:13.625Z,100845.16
2023-05-05T16:57:42.111Z,100833.97
2023-05-05T17:00:12.151Z,100849.56
2023-05-05T17:02:41.724Z,100846.19
2023-05-05T17:05:10.950Z,100839.84
2023-05-05T17:07:40.208Z,100846.63
2023-05-05T17:10:09.661Z,100831.00
2023-05-05T17:12:37.892Z,100837.09
2023-05-05T17:15:07.037Z,100834.75
2023-05-05T17:17:35.156Z,100827.34
2023-05-05T17:20:04.854Z,100829.84
2023-05-05T17:22:32.966Z,100836.38
2023-05-05T17:25:00.868Z,100815.97
2023-05-05T17:27:28.769Z,100835.59
2023-05-05T17:29:56.879Z,100840.66
2023-05-05T17:32:24.829Z,100834.72
2023-05-05T17:34:52.947Z,100832.66
2023-05-05T17:37:22.144Z,100827.19
2023-05-05T17:39:50.083Z,100832.25
2023-05-05T17:42:22.824Z,100827.19
2023-05-05T17:44:51.006Z,100837.78
2023-05-05T17:47:22.523Z,100831.41
2023-05-05T17:49:52.576Z,100828.47
2023-05-05T17:52:24.122Z,100834.81
2023-05-05T17:54:53.008Z,100829.72
2023-05-05T17:57:22.975Z,100830.19
2023-05-05T17:59:53.512Z,100840.09
2023-05-05T18:02:22.239Z,100844.53
2023-05-05T18:04:51.122Z,100829.34
2023-05-05T18:07:22.819Z,100844.94
2023-05-05T18:09:52.167Z,100846.19
2023-05-05T18:12:21.948Z,100834.00
2023-05-05T18:14:50.214Z,100842.88
2023-05-05T18:17:18.398Z,100844.94
2023-05-05T18:19:49.124Z,100844.56
2023-05-05T18:22:17.687Z,100846.88
2023-05-05T18:24:47.744Z,100841.16
2023-05-05T18:27:17.283Z,100838.63
2023-05-05T18:29:47.310Z,100846.88
2023-05-05T18:32:17.480Z,100823.63
2023-05-05T18:34:45.815Z,100832.28
2023-05-05T18:37:14.913Z,100829.13
2023-05-05T18:39:44.144Z,100832.50
2023-05-05T18:42:15.353Z,100838.59
2023-05-05T18:45:10.627Z,100842.19
2023-05-05T18:47:39.683Z,100839.25
2023-05-05T18:50:09.982Z,100841.13
2023-05-05T18:52:38.482Z,100841.75
2023-05-05T18:57:40.478Z,100835.19
2023-05-05T19:00:13.203Z,100834.38
2023-05-05T19:02:41.472Z,100827.25
2023-05-05T19:05:10.824Z,100806.97
2023-05-05T19:07:41.280Z,100821.75
2023-05-05T19:10:11.618Z,100835.03
2023-05-05T19:12:41.534Z,100822.19
2023-05-05T19:15:13.915Z,100833.38
2023-05-05T19:17:43.201Z,100833.16
2023-05-05T19:20:13.233Z,100830.41
2023-05-05T19:22:42.090Z,100831.47
2023-05-05T19:25:14.272Z,100820.06
2023-05-05T19:27:44.822Z,100815.22
2023-05-05T19:30:13.891Z,100815.84
2023-05-05T19:32:43.240Z,100818.81
2023-05-05T19:35:12.359Z,100811.63
2023-05-05T19:37:41.376Z,100836.09
2023-05-05T19:40:11.171Z,100828.91
2023-05-05T19:42:41.173Z,100818.38
2023-05-05T19:45:12.225Z,100823.25
2023-05-05T19:47:42.360Z,100806.38
2023-05-05T19:50:16.158Z,100803.63
2023-05-05T19:52:45.745Z,100809.53
2023-05-05T19:55:14.384Z,100817.53
2023-05-05T19:57:43.950Z,100802.78
2023-05-05T20:00:16.230Z,100818.78
2023-05-05T20:02:45.822Z,100813.28
2023-05-05T20:05:18.297Z,100831.44
2023-05-05T20:07:47.492Z,100819.41
2023-05-05T20:10:16.833Z,100820.03
2023-05-05T20:12:48.344Z,100817.50
2023-05-05T20:15:22.406Z,100795.56
2023-05-05T20:17:56.923Z,100811.59
2023-05-05T20:20:25.809Z,100818.59
2023-05-05T20:23:44.313Z,100817.75
2023-05-05T20:26:24.476Z,100815.00
2023-05-05T20:28:57.173Z,100819.22
2023-05-05T20:31:26.571Z,100817.31
2023-05-05T20:33:54.524Z,100817.50
2023-05-05T20:36:22.834Z,100808.22
2023-05-05T20:38:51.867Z,100815.81
2023-05-05T20:41:19.648Z,100814.97
2023-05-05T20:43:47.480Z,100813.66
2023-05-05T20:46:15.328Z,100814.28
2023-05-05T20:48:45.090Z,100809.59
2023-05-05T20:51:13.073Z,100795.44
2023-05-05T20:53:41.065Z,100809.75
2023-05-05T20:56:09.193Z,100798.97
2023-05-05T20:58:37.682Z,100818.81
2023-05-05T21:01:06.068Z,100814.78
2023-05-05T21:03:34.127Z,100826.50
2023-05-05T21:06:03.931Z,100826.00
2023-05-05T21:08:31.721Z,100831.88
2023-05-05T21:10:59.486Z,100837.28
2023-05-05T21:13:27.230Z,100838.09
2023-05-05T21:15:57.124Z,100835.13
2023-05-05T21:18:27.536Z,100839.09
2023-05-05T21:20:55.367Z,100841.00
2023-05-05T21:23:24.893Z,100836.81
2023-05-05T21:25:53.246Z,100833.28
2023-05-05T21:28:25.150Z,100828.41
2023-05-05T21:31:19.625Z,100832.06
2023-05-05T21:33:43.125Z,100840.31
2023-05-05T21:36:11.384Z,100836.78
2023-05-05T21:38:40.995Z,100814.66
2023-05-05T21:41:09.306Z,100820.06
2023-05-05T21:43:37.713Z,100839.19
2023-05-05T21:46:06.602Z,100831.34
2023-05-05T21:48:34.997Z,100832.13
2023-05-05T21:51:03.265Z,100841.22
2023-05-05T21:53:31.625Z,100827.91
2023-05-05T21:56:01.304Z,100828.78
2023-05-05T21:58:29.592Z,100829.69
2023-05-05T22:00:59.822Z,100829.28
2023-05-05T22:03:28.497Z,100838.13
2023-05-05T22:05:56.825Z,100830.53
2023-05-05T22:08:25.210Z,100828.84
2023-05-05T22:10:53.495Z,100835.44
2023-05-05T22:13:23.270Z,100833.50
2023-05-05T22:15:51.792Z,100821.28
2023-05-05T22:18:20.123Z,100833.72
2023-05-05T22:20:48.448Z,100830.97
2023-05-05T22:23:17.386Z,100822.50
2023-05-05T22:25:46.586Z,100842.72
2023-05-05T22:28:14.883Z,100816.88
2023-05-05T22:30:44.526Z,100849.56
2023-05-05T22:33:12.873Z,100852.06
2023-05-05T22:35:43.150Z,100850.56
2023-05-05T22:38:12.179Z,100852.91
2023-05-05T22:40:40.624Z,100827.34
2023-05-05T22:43:08.903Z,100855.81
2023-05-05T22:45:37.265Z,100857.31
2023-05-05T22:48:07.406Z,100847.44
2023-05-05T22:50:36.317Z,100862.66
2023-05-05T22:53:08.035Z,100861.78
2023-05-05T22:55:36.364Z,100855.88
2023-05-05T22:58:05.050Z,100859.25
2023-05-05T23:00:33.376Z,100858.00
2023-05-05T23:03:01.915Z,100851.47
2023-05-05T23:05:34.425Z,100853.78
2023-05-05T23:08:02.956Z,100830.53
2023-05-05T23:10:31.422Z,100843.91
2023-05-05T23:12:59.851Z,100845.63
2023-05-05T23:15:28.706Z,100844.84
2023-05-05T23:17:57.087Z,100841.97
2023-05-05T23:20:25.612Z,100835.50
2023-05-05T23:22:56.249Z,100839.53
2023-05-05T23:25:25.121Z,100839.88
2023-05-05T23:27:53.382Z,100841.13
2023-05-05T23:30:21.911Z,100831.41
2023-05-05T23:32:50.205Z,100819.19
2023-05-05T23:35:18.564Z,100846.84
2023-05-05T23:37:46.924Z,100843.72
2023-05-05T23:40:16.717Z,100848.16
2023-05-05T23:42:45.154Z,100847.53
2023-05-05T23:45:13.627Z,100843.75
2023-05-05T23:47:42.012Z,100850.09
2023-05-05T23:50:10.988Z,100833.16
2023-05-05T23:52:39.189Z,100850.50
2023-05-05T23:55:08.802Z,100837.63
2023-05-05T23:57:38.682Z,100850.91
